Time;durP1;ratioP1;P1;durP2;ratioP2;P2;SDS_P1;SDS_P2;PMS_P1;PMS_P2;Temp;Humidity;BMP_temperature;BMP_pressure;BME280_temperature;BME280_humidity;BME280_pressure;Samples;Min_cycle;Max_cycle;Signal;HPM_P1;HPM_P2
2021/10/07 00:03:40;;;;;;;13.75;8.70;;;5.00;99.90;;;;;;4994264;28;20033;-70
2021/10/07 00:09:27;;;;;;;15.40;11.05;;;5.00;99.90;;;;;;4994230;28;20025;-70
2021/10/07 00:12:30;;;;;;;13.60;9.20;;;5.00;99.90;;;;;;4994366;28;20464;-70
2021/10/07 00:21:20;;;;;;;11.20;9.02;;;4.90;99.90;;;;;;4994098;28;20037;-70
2021/10/07 00:27:07;;;;;;;16.00;10.68;;;5.00;99.90;;;;;;4993722;28;20088;-70
2021/10/07 00:33:21;;;;;;;17.30;11.13;;;5.00;99.90;;;;;;4993655;28;20037;-70
2021/10/07 00:42:30;;;;;;;19.83;11.05;;;4.90;99.90;;;;;;4993672;28;20110;-70
2021/10/07 00:58:05;;;;;;;23.50;15.07;;;5.00;99.90;;;;;;4997261;28;20033;-70
2021/10/07 01:16:05;;;;;;;16.80;10.93;;;4.80;99.90;;;;;;4997330;28;20033;-70
2021/10/07 01:18:49;;;;;;;20.23;13.73;;;4.80;99.90;;;;;;4996974;28;20036;-70
2021/10/07 01:28:17;;;;;;;18.52;13.88;;;4.90;99.90;;;;;;4996751;28;20033;-70
2021/10/07 01:34:23;;;;;;;18.15;12.27;;;4.70;99.90;;;;;;4996916;28;20088;-70
2021/10/07 01:40:31;;;;;;;17.23;11.73;;;4.70;99.90;;;;;;4996522;28;20021;-70
2021/10/07 01:42:57;;;;;;;19.55;12.32;;;4.60;99.90;;;;;;4996449;28;20054;-70
2021/10/07 01:48:44;;;;;;;13.38;10.15;;;4.60;99.90;;;;;;4996577;28;20409;-70
2021/10/07 01:51:47;;;;;;;12.57;8.88;;;4.60;99.90;;;;;;4996231;28;20060;-71
2021/10/07 01:54:31;;;;;;;9.68;7.57;;;4.60;99.90;;;;;;4994399;28;20552;-70
2021/10/07 02:03:59;;;;;;;12.48;8.55;;;4.50;99.90;;;;;;4996379;28;20029;-70
2021/10/07 02:10:08;;;;;;;10.95;8.48;;;4.50;99.90;;;;;;4995633;28;20065;-70
2021/10/07 02:19:18;;;;;;;8.30;7.13;;;4.30;99.90;;;;;;4996154;28;20141;-70
2021/10/07 02:21:46;;;;;;;11.20;7.88;;;4.30;99.90;;;;;;4995995;28;20040;-70
2021/10/07 02:24:31;;;;;;;8.80;6.90;;;4.30;99.90;;;;;;4995938;28;20030;-70
2021/10/07 02:27:15;;;;;;;11.85;8.07;;;4.30;99.90;;;;;;4995780;28;20456;-70
2021/10/07 02:36:43;;;;;;;11.25;8.05;;;4.20;99.90;;;;;;4995468;28;20029;-70
2021/10/07 02:39:27;;;;;;;15.45;9.10;;;4.20;99.90;;;;;;4994934;28;20026;-70
2021/10/07 02:45:34;;;;;;;11.60;8.82;;;4.20;99.90;;;;;;4995608;28;20068;-70
2021/10/07 02:48:37;;;;;;;16.05;8.93;;;4.20;99.90;;;;;;4993739;28;20070;-70
2021/10/07 02:51:21;;;;;;;12.10;9.13;;;4.20;99.90;;;;;;4985740;28;20050;-70
2021/10/07 03:02:37;;;;;;;18.73;10.35;;;4.00;99.90;;;;;;4975637;28;19969;-70
2021/10/07 03:11:08;;;;;;;;;;;4.10;99.90;;;;;;4995386;28;20069;-70
2021/10/07 03:16:55;;;;;;;20.58;13.23;;;4.10;99.90;;;;;;4974544;28;20042;-70
2021/10/07 03:19:39;;;;;;;17.95;12.23;;;4.00;99.90;;;;;;4975234;28;20110;-70
2021/10/07 03:44:43;;;;;;;12.90;9.27;;;4.10;99.90;;;;;;4983761;28;20026;-70
2021/10/07 03:47:27;;;;;;;20.27;11.23;;;4.10;99.90;;;;;;4993485;28;20371;-70
2021/10/07 03:55:40;;;;;;;16.05;10.80;;;4.10;99.90;;;;;;4993645;28;20045;-70
2021/10/07 04:01:28;;;;;;;18.10;12.10;;;4.00;99.90;;;;;;4994081;28;20025;-70
2021/10/07 04:04:12;;;;;;;16.55;10.32;;;3.90;99.90;;;;;;4993442;28;20428;-70
2021/10/07 04:06:38;;;;;;;15.43;10.02;;;3.80;99.90;;;;;;4994281;28;20435;-70
2021/10/07 04:09:03;;;;;;;15.55;10.15;;;3.80;99.90;;;;;;4993863;28;20053;-70
2021/10/07 04:11:47;;;;;;;18.40;11.65;;;3.70;99.90;;;;;;4993748;28;20393;-70
2021/10/07 04:14:13;;;;;;;19.75;10.73;;;3.60;99.90;;;;;;4993873;28;20097;-70
2021/10/07 04:23:03;;;;;;;;;;;3.50;99.90;;;;;;4975139;28;20057;-70
2021/10/07 04:34:37;;;;;;;18.92;11.32;;;3.50;99.90;;;;;;4997876;28;20073;-70
2021/10/07 04:37:03;;;;;;;16.30;10.90;;;3.50;99.90;;;;;;4997906;28;20026;-70
2021/10/07 04:51:40;;;;;;;;;;;3.40;99.90;;;;;;4993513;28;20043;-70
2021/10/07 04:54:43;;;;;;;16.10;10.70;;;3.40;99.90;;;;;;4977969;28;19906;-70
2021/10/07 05:03:51;;;;;;;14.82;8.75;;;3.30;99.90;;;;;;4977160;28;20037;-69
2021/10/07 05:06:36;;;;;;;14.30;9.30;;;3.30;99.90;;;;;;4977690;28;20039;-70
2021/10/07 05:12:23;;;;;;;13.00;8.38;;;3.40;99.90;;;;;;4989682;28;20033;-70
2021/10/07 05:15:26;;;;;;;12.10;8.52;;;3.40;99.90;;;;;;4996973;28;20030;-70
2021/10/07 05:18:10;;;;;;;15.98;9.05;;;3.40;99.90;;;;;;4996840;28;20033;-70
2021/10/07 05:24:16;;;;;;;14.70;8.30;;;3.40;99.90;;;;;;4997072;28;20444;-70
2021/10/07 05:27:01;;;;;;;12.50;8.48;;;3.40;99.90;;;;;;4996721;28;20026;-70
2021/10/07 05:36:47;;;;;;;12.30;8.27;;;3.30;99.90;;;;;;4994809;28;20021;-70
2021/10/07 05:42:36;;;;;;;14.95;9.80;;;3.30;99.90;;;;;;4982585;28;20114;-70
2021/10/07 05:45:02;;;;;;;12.90;9.25;;;3.30;99.90;;;;;;4995194;28;20026;-69
2021/10/07 05:47:47;;;;;;;12.35;8.63;;;3.30;99.90;;;;;;5083174;23;20046;-72
2021/10/07 05:50:31;;;;;;;16.33;9.15;;;3.30;99.90;;;;;;4996440;28;20018;-72
2021/10/07 05:53:15;;;;;;;12.20;8.93;;;3.30;99.90;;;;;;4996204;28;20034;-72
2021/10/07 06:02:06;;;;;;;17.27;10.55;;;3.30;99.90;;;;;;4976389;28;20038;-72
2021/10/07 06:10:56;;;;;;;;;;;3.50;99.90;;;;;;4977357;28;20036;-72
2021/10/07 06:13:40;;;;;;;15.90;9.52;;;3.40;99.90;;;;;;4990504;28;19913;-72
2021/10/07 06:16:06;;;;;;;15.30;10.15;;;3.50;99.90;;;;;;4978442;28;20026;-72
2021/10/07 06:18:51;;;;;;;16.20;10.55;;;3.50;99.90;;;;;;4995618;28;20543;-72
2021/10/07 06:24:57;;;;;;;21.05;10.55;;;3.70;99.90;;;;;;4995793;28;20445;-72
2021/10/07 06:34:07;;;;;;;17.40;9.95;;;3.90;99.90;;;;;;4995186;28;20042;-72
2021/10/07 06:42:57;;;;;;;15.25;10.05;;;4.30;99.90;;;;;;4983080;28;20061;-72
2021/10/07 06:46:00;;;;;;;16.65;11.05;;;4.50;99.90;;;;;;4975389;28;20085;-72
2021/10/07 06:54:50;;;;;;;19.98;13.23;;;5.10;99.90;;;;;;4995444;28;20037;-72
2021/10/07 06:57:16;;;;;;;22.67;12.93;;;5.30;99.90;;;;;;4994890;28;20505;-72
2021/10/07 07:00:00;;;;;;;20.38;13.20;;;5.40;99.90;;;;;;4995347;28;20046;-72
2021/10/07 07:05:29;;;;;;;25.00;14.02;;;5.80;99.90;;;;;;4994494;28;20041;-72
2021/10/07 07:14:02;;;;;;;24.30;15.32;;;6.50;99.90;;;;;;4994876;28;19916;-72
2021/10/07 07:16:46;;;;;;;25.50;16.70;;;6.70;99.90;;;;;;4977206;28;20027;-72
2021/10/07 07:19:12;;;;;;;26.92;17.48;;;6.90;99.90;;;;;;4994136;28;20026;-72
2021/10/07 07:21:38;;;;;;;34.80;17.73;;;7.20;99.90;;;;;;4994603;28;20030;-72
2021/10/07 07:27:44;;;;;;;36.72;19.27;;;7.70;99.90;;;;;;4975355;28;20034;-72
2021/10/07 07:33:31;;;;;;;36.13;19.75;;;8.20;99.90;;;;;;4989789;28;20404;-72
2021/10/07 07:56:28;;;;;;;52.20;31.33;;;10.30;99.90;;;;;;4955959;29;20062;-72
2021/10/07 07:59:12;;;;;;;61.53;29.90;;;10.60;99.90;;;;;;4955007;29;20114;-72
2021/10/07 08:10:28;;;;;;;56.85;29.77;;;11.10;99.90;;;;;;4955757;29;20037;-72
2021/10/07 08:12:55;;;;;;;44.03;26.33;;;11.30;99.90;;;;;;4955067;29;20506;-72
2021/10/07 08:15:21;;;;;;;54.10;28.60;;;11.50;99.90;;;;;;4955186;28;20066;-72
2021/10/07 08:23:53;;;;;;;47.83;24.60;;;12.00;99.90;;;;;;4955167;29;19957;-72
2021/10/07 08:26:39;;;;;;;43.08;25.00;;;12.20;99.90;;;;;;4955270;28;20397;-72
2021/10/07 08:29:05;;;;;;;37.15;23.98;;;12.50;99.90;;;;;;4955398;28;20066;-72
2021/10/07 08:31:49;;;;;;;32.22;21.15;;;12.50;99.90;;;;;;4954658;29;20443;-72
2021/10/07 08:34:52;;;;;;;30.95;21.25;;;12.60;99.90;;;;;;4955155;28;20030;-72
2021/10/07 08:37:18;;;;;;;28.90;20.65;;;12.60;99.90;;;;;;4969745;28;20019;-72
2021/10/07 08:43:06;;;;;;;23.67;18.02;;;12.80;99.90;;;;;;4955252;29;20090;-72
2021/10/07 08:49:14;;;;;;;29.75;16.25;;;13.10;99.90;;;;;;4955134;29;20074;-72
2021/10/07 08:52:17;;;;;;;22.63;14.55;;;13.20;99.90;;;;;;4955064;28;20019;-72
2021/10/07 08:55:02;;;;;;;23.03;15.37;;;13.30;99.90;;;;;;4954598;28;20023;-72
2021/10/07 09:01:27;;;;;;;19.08;13.85;;;13.70;99.90;;;;;;4954900;29;20070;-73
2021/10/07 09:07:49;;;;;;;17.17;10.32;;;13.80;99.90;;;;;;4955104;28;20041;-72
2021/10/07 09:14:16;;;;;;;12.57;8.55;;;14.20;99.90;;;;;;4954161;28;20043;-73
2021/10/07 09:16:47;;;;;;;15.30;8.27;;;14.30;99.90;;;;;;4976499;28;20027;-73
2021/10/07 09:19:28;;;;;;;10.52;7.95;;;14.50;99.90;;;;;;4977470;28;20077;-73
2021/10/07 09:22:11;;;;;;;11.43;7.70;;;14.60;99.90;;;;;;4977319;28;20031;-73
2021/10/07 09:24:45;;;;;;;10.15;6.80;;;14.80;99.90;;;;;;4977094;28;20085;-72
2021/10/07 09:27:28;;;;;;;9.57;7.00;;;14.90;99.90;;;;;;4977410;28;20049;-73
2021/10/07 09:40:11;;;;;;;11.45;5.90;;;15.40;99.90;;;;;;4977403;28;20022;-73
2021/10/07 09:42:43;;;;;;;7.70;4.40;;;15.60;99.90;;;;;;4977153;28;20054;-73
2021/10/07 09:45:17;;;;;;;8.75;4.40;;;15.70;99.90;;;;;;4976776;28;20085;-73
2021/10/07 09:47:51;;;;;;;6.65;4.20;;;15.70;99.90;;;;;;4962306;28;20035;-73
2021/10/07 09:50:30;;;;;;;6.47;4.57;;;15.80;99.90;;;;;;4957914;28;20094;-73
2021/10/07 09:53:07;;;;;;;12.45;4.93;;;15.90;99.90;;;;;;4973853;28;20060;-73
2021/10/07 09:55:34;;;;;;;6.07;3.90;;;16.10;99.90;;;;;;4977157;28;20022;-73
2021/10/07 09:58:05;;;;;;;10.60;4.75;;;16.10;99.90;;;;;;4976092;28;20023;-73
2021/10/07 10:00:36;;;;;;;5.47;4.78;;;16.10;99.90;;;;;;4976899;28;20019;-74
2021/10/07 10:03:04;;;;;;;5.22;4.03;;;16.10;99.90;;;;;;4976425;28;20027;-73
2021/10/07 10:05:32;;;;;;;5.07;4.00;;;16.10;99.90;;;;;;4976705;28;20055;-73
2021/10/07 10:07:59;;;;;;;8.02;3.83;;;16.10;99.90;;;;;;4976446;28;20039;-73
2021/10/07 10:10:25;;;;;;;7.45;3.80;;;16.20;99.90;;;;;;4991023;28;20398;-73
2021/10/07 10:12:51;;;;;;;6.82;4.13;;;16.40;99.90;;;;;;4990810;28;20026;-73
2021/10/07 10:15:18;;;;;;;5.75;4.07;;;16.50;99.90;;;;;;4976501;28;20027;-74
2021/10/07 10:17:44;;;;;;;6.78;4.28;;;16.50;99.90;;;;;;4976632;28;20093;-73
2021/10/07 10:20:16;;;;;;;5.78;4.10;;;16.60;99.90;;;;;;4975769;28;20481;-73
2021/10/07 10:22:48;;;;;;;8.45;4.05;;;16.70;99.90;;;;;;4975168;28;20158;-73
2021/10/07 10:25:14;;;;;;;8.68;5.03;;;16.70;99.90;;;;;;4976319;28;20105;-73
2021/10/07 10:28:07;;;;;;;6.78;4.00;;;16.70;99.90;;;;;;4976021;28;20058;-73
2021/10/07 10:30:44;;;;;;;12.17;4.33;;;16.80;99.90;;;;;;4973613;28;20045;-73
2021/10/07 10:33:30;;;;;;;8.90;4.20;;;17.00;99.90;;;;;;4975474;28;20038;-73
2021/10/07 10:35:56;;;;;;;13.05;4.80;;;17.10;99.90;;;;;;4975922;28;20038;-73
2021/10/07 10:38:22;;;;;;;6.85;3.97;;;17.20;99.90;;;;;;4974143;28;20399;-73
2021/10/07 10:40:48;;;;;;;4.70;3.53;;;17.30;99.90;;;;;;4975998;28;20023;-73
2021/10/07 10:43:17;;;;;;;7.93;3.65;;;17.50;99.90;;;;;;4974553;28;20027;-73
2021/10/07 10:46:09;;;;;;;4.78;2.80;;;17.60;99.90;;;;;;4973896;28;20046;-74
2021/10/07 10:48:40;;;;;;;7.85;3.63;;;17.50;99.90;;;;;;4975482;28;20037;-73
2021/10/07 10:51:09;;;;;;;4.53;2.80;;;17.50;99.90;;;;;;4975619;28;20270;-73
2021/10/07 10:53:57;;;;;;;6.45;2.50;;;17.50;99.90;;;;;;4975276;28;20038;-73
2021/10/07 10:56:23;;;;;;;6.10;2.40;;;17.50;99.90;;;;;;4975757;28;20019;-73
2021/10/07 10:59:22;;;;;;;4.97;2.42;;;17.60;99.90;;;;;;4975702;28;20393;-74
2021/10/07 11:02:16;;;;;;;4.45;2.83;;;17.60;99.90;;;;;;4975131;28;20490;-74
2021/10/07 11:04:47;;;;;;;6.45;2.10;;;17.90;99.90;;;;;;4973793;28;20043;-73
2021/10/07 11:07:22;;;;;;;4.72;2.30;;;18.00;99.90;;;;;;4975008;28;20035;-73
2021/10/07 11:10:00;;;;;;;5.38;1.60;;;17.80;99.90;;;;;;4975552;28;20030;-74
2021/10/07 11:12:33;;;;;;;4.07;2.13;;;17.90;99.90;;;;;;4974464;28;20026;-73
2021/10/07 11:14:59;;;;;;;3.17;2.00;;;18.00;99.90;;;;;;4975406;28;20426;-75
2021/10/07 11:17:29;;;;;;;8.38;2.50;;;18.20;99.90;;;;;;4975297;28;20027;-73
2021/10/07 11:19:55;;;;;;;6.70;2.20;;;18.30;99.90;;;;;;4975805;28;20023;-73
2021/10/07 11:22:22;;;;;;;10.48;2.30;;;18.20;99.90;;;;;;4974755;28;20054;-74
2021/10/07 11:24:52;;;;;;;8.02;2.42;;;18.20;99.90;;;;;;4975154;28;20026;-73
2021/10/07 11:27:37;;;;;;;4.72;2.00;;;18.30;99.90;;;;;;4975175;28;20034;-72
2021/10/07 11:30:07;;;;;;;6.30;2.05;;;18.70;99.90;;;;;;4975408;28;20023;-73
2021/10/07 11:32:32;;;;;;;4.43;2.05;;;18.90;99.90;;;;;;4989841;28;20031;-72
2021/10/07 11:35:10;;;;;;;2.58;1.85;;;19.00;99.90;;;;;;4974701;28;20027;-72
2021/10/07 11:38:05;;;;;;;4.00;2.17;;;19.10;99.90;;;;;;4974570;28;20058;-72
2021/10/07 11:40:48;;;;;;;2.65;2.30;;;19.50;99.90;;;;;;4975132;28;20082;-73
2021/10/07 11:43:17;;;;;;;4.38;2.50;;;19.70;99.90;;;;;;4974566;28;20490;-72
2021/10/07 11:45:48;;;;;;;6.70;2.60;;;19.70;99.90;;;;;;4974882;28;20051;-72
2021/10/07 11:48:15;;;;;;;4.68;2.05;;;19.60;99.90;;;;;;5004363;23;20038;-71
2021/10/07 11:51:04;;;;;;;5.20;2.72;;;19.90;99.90;;;;;;4994265;28;20057;-70
2021/10/07 11:53:30;;;;;;;6.40;2.95;;;20.20;99.90;;;;;;4993610;28;20077;-70
2021/10/07 11:55:57;;;;;;;3.97;2.63;;;20.30;99.90;;;;;;4994213;28;20398;-70
2021/10/07 11:58:25;;;;;;;4.72;2.10;;;20.10;99.90;;;;;;4980125;28;20075;-70
2021/10/07 12:00:52;;;;;;;11.85;3.00;;;20.40;99.90;;;;;;4954878;28;20034;-70
2021/10/07 12:03:19;;;;;;;4.00;2.33;;;20.80;99.90;;;;;;4963973;28;20486;-70
2021/10/07 12:05:50;;;;;;;9.65;2.95;;;20.40;99.90;;;;;;4974849;28;20062;-70
2021/10/07 12:08:17;;;;;;;4.13;2.10;;;19.90;99.90;;;;;;4988943;28;20046;-70
2021/10/07 12:10:56;;;;;;;4.40;2.25;;;19.20;99.90;;;;;;4974838;28;20050;-70
2021/10/07 12:13:26;;;;;;;3.63;2.25;;;18.80;99.90;;;;;;4974650;28;20058;-70
2021/10/07 12:16:02;;;;;;;5.50;2.58;;;18.70;99.90;;;;;;4974119;28;20023;-70
2021/10/07 12:18:28;;;;;;;9.13;2.20;;;19.00;99.90;;;;;;4974721;28;20030;-70
2021/10/07 12:21:10;;;;;;;4.78;2.25;;;19.20;99.90;;;;;;4974371;28;20109;-70
2021/10/07 12:24:04;;;;;;;3.47;2.10;;;19.50;99.90;;;;;;4974712;28;20489;-70
2021/10/07 12:26:35;;;;;;;12.13;2.00;;;20.30;99.90;;;;;;4973824;28;20389;-70
2021/10/07 12:29:12;;;;;;;3.50;1.85;;;20.80;99.90;;;;;;4974352;28;20094;-70
2021/10/07 12:31:39;;;;;;;3.35;1.70;;;21.10;99.90;;;;;;4974548;28;20027;-70
2021/10/07 12:34:07;;;;;;;9.07;2.10;;;21.10;99.90;;;;;;4974426;28;20022;-70
2021/10/07 12:36:49;;;;;;;5.43;2.00;;;21.80;99.90;;;;;;4974033;28;20127;-70
2021/10/07 12:39:25;;;;;;;4.25;2.33;;;22.30;99.90;;;;;;4973670;28;20479;-70
2021/10/07 12:41:53;;;;;;;4.22;2.42;;;22.60;99.90;;;;;;4974195;28;20418;-70
2021/10/07 12:44:31;;;;;;;3.58;1.90;;;22.60;99.90;;;;;;4974526;28;20042;-70
2021/10/07 12:46:58;;;;;;;7.38;2.03;;;22.70;99.90;;;;;;4974284;28;20054;-70
2021/10/07 12:49:36;;;;;;;2.55;2.00;;;22.90;99.90;;;;;;4976357;28;20478;-71
2021/10/07 12:52:14;;;;;;;3.72;2.22;;;23.00;99.90;;;;;;4977908;28;20031;-70
2021/10/07 12:54:41;;;;;;;7.38;2.78;;;22.70;99.90;;;;;;4977490;28;20498;-70
2021/10/07 12:57:06;;;;;;;4.25;2.67;;;21.40;99.90;;;;;;4977397;28;20026;-70
2021/10/07 12:59:55;;;;;;;5.45;2.40;;;21.70;99.90;;;;;;4978184;28;20170;-70
2021/10/07 13:02:31;;;;;;;4.32;2.33;;;22.60;99.90;;;;;;4974205;28;20034;-70
2021/10/07 13:04:58;;;;;;;6.03;2.65;;;23.10;99.90;;;;;;4977880;28;20375;-70
2021/10/07 13:07:25;;;;;;;7.47;2.83;;;23.30;99.90;;;;;;4976193;28;20018;-70
2021/10/07 13:09:52;;;;;;;5.10;2.97;;;22.80;99.90;;;;;;4977182;28;20019;-71
2021/10/07 13:12:20;;;;;;;5.00;2.65;;;22.30;99.90;;;;;;4977640;28;20073;-70
2021/10/07 13:14:56;;;;;;;8.88;2.83;;;21.50;99.90;;;;;;4977310;28;20478;-70
2021/10/07 13:17:22;;;;;;;7.40;2.90;;;21.50;99.90;;;;;;4977799;28;20030;-70
2021/10/07 13:19:48;;;;;;;5.10;3.00;;;21.40;99.90;;;;;;4977264;28;20355;-70
2021/10/07 13:22:13;;;;;;;5.50;2.70;;;21.40;99.90;;;;;;4977126;28;20431;-69
2021/10/07 13:24:39;;;;;;;5.35;2.78;;;22.00;99.90;;;;;;4977412;28;20113;-70
2021/10/07 13:27:09;;;;;;;3.20;2.58;;;22.50;99.90;;;;;;4976678;28;20027;-70
2021/10/07 13:29:35;;;;;;;2.83;2.30;;;22.40;99.90;;;;;;4977697;28;20037;-70
2021/10/07 13:32:01;;;;;;;6.50;2.90;;;22.70;99.90;;;;;;4977235;28;20416;-70
2021/10/07 13:34:28;;;;;;;5.93;3.08;;;22.50;99.90;;;;;;4977475;28;20026;-70
2021/10/07 13:36:53;;;;;;;3.35;2.60;;;21.50;99.90;;;;;;4974702;28;20025;-70
2021/10/07 13:39:20;;;;;;;5.47;2.60;;;20.50;99.90;;;;;;4957799;28;20498;-69
2021/10/07 13:41:46;;;;;;;4.72;3.15;;;19.80;99.90;;;;;;4959138;28;20027;-70
2021/10/07 13:44:11;;;;;;;5.38;3.20;;;20.00;99.90;;;;;;4957792;28;20050;-71
2021/10/07 13:46:38;;;;;;;5.07;3.03;;;20.70;99.90;;;;;;4972165;28;20030;-70
2021/10/07 13:49:04;;;;;;;4.15;2.40;;;20.90;99.90;;;;;;4976894;28;20034;-70
2021/10/07 13:51:30;;;;;;;4.75;3.38;;;21.10;99.90;;;;;;4976480;28;20113;-70
2021/10/07 13:53:55;;;;;;;5.95;3.20;;;21.30;99.90;;;;;;4976417;28;20050;-70
2021/10/07 13:56:21;;;;;;;8.13;2.50;;;22.10;99.90;;;;;;4974917;28;20023;-70
2021/10/07 13:58:46;;;;;;;6.30;2.20;;;22.50;99.90;;;;;;4959182;28;20023;-71
2021/10/07 14:01:12;;;;;;;4.43;2.83;;;22.50;99.90;;;;;;4955660;28;20118;-71
2021/10/07 14:03:38;;;;;;;4.90;2.50;;;21.60;99.90;;;;;;4960718;28;20031;-71
2021/10/07 14:06:04;;;;;;;5.78;2.60;;;20.60;99.90;;;;;;4957651;29;20042;-70
2021/10/07 14:08:30;;;;;;;3.05;2.60;;;19.80;99.90;;;;;;4964714;28;20450;-71
2021/10/07 14:10:58;;;;;;;6.88;3.40;;;19.00;99.90;;;;;;4976960;28;20114;-70
2021/10/07 14:13:24;;;;;;;5.93;3.50;;;18.40;99.90;;;;;;4975696;28;20538;-71
2021/10/07 14:15:50;;;;;;;7.55;2.78;;;18.00;99.90;;;;;;4976563;28;20061;-70
2021/10/07 14:18:16;;;;;;;5.10;2.97;;;17.90;99.90;;;;;;4976365;28;20031;-70
2021/10/07 14:20:42;;;;;;;12.45;3.97;;;17.80;99.90;;;;;;4976673;28;20062;-71
2021/10/07 14:23:08;;;;;;;5.30;3.40;;;18.20;99.90;;;;;;4976428;28;20398;-71
2021/10/07 14:25:34;;;;;;;6.00;2.60;;;19.10;99.90;;;;;;4975885;28;20038;-71
2021/10/07 14:28:03;;;;;;;3.45;2.60;;;20.30;99.90;;;;;;4975976;28;20390;-71
2021/10/07 14:30:29;;;;;;;5.40;2.60;;;20.50;99.90;;;;;;4976554;28;20023;-71
2021/10/07 14:32:54;;;;;;;4.35;2.38;;;20.10;99.90;;;;;;4975675;28;20030;-71
2021/10/07 14:35:20;;;;;;;8.00;2.55;;;20.00;99.90;;;;;;4976032;28;20026;-71
2021/10/07 14:37:46;;;;;;;5.75;2.40;;;19.70;99.90;;;;;;4974795;28;20117;-71
2021/10/07 14:40:12;;;;;;;3.60;2.58;;;19.30;99.90;;;;;;4976174;28;20019;-71
2021/10/07 14:42:38;;;;;;;3.63;2.58;;;18.40;99.90;;;;;;4975955;28;20106;-71
2021/10/07 14:45:05;;;;;;;2.90;2.22;;;18.00;99.90;;;;;;4974342;28;20035;-71
2021/10/07 14:47:31;;;;;;;5.38;3.22;;;17.80;99.90;;;;;;4975794;28;20038;-70
2021/10/07 14:49:56;;;;;;;8.93;3.08;;;17.50;99.90;;;;;;4975874;28;20432;-70
2021/10/07 14:52:22;;;;;;;6.03;3.00;;;17.20;99.90;;;;;;4974506;28;20565;-70
2021/10/07 14:54:48;;;;;;;5.75;2.72;;;17.30;99.90;;;;;;4958435;28;20027;-71
2021/10/07 14:57:13;;;;;;;5.05;2.60;;;17.70;99.90;;;;;;4955961;28;20029;-70
2021/10/07 14:59:39;;;;;;;3.33;2.10;;;17.90;99.90;;;;;;4969073;28;20038;-70
2021/10/07 15:02:05;;;;;;;4.03;2.22;;;18.10;99.90;;;;;;4975746;28;20035;-71
2021/10/07 15:04:31;;;;;;;8.27;3.20;;;18.80;99.90;;;;;;4975540;28;20027;-71
2021/10/07 15:06:56;;;;;;;3.03;2.30;;;19.70;99.90;;;;;;4973458;28;20022;-71
2021/10/07 15:09:22;;;;;;;5.03;2.20;;;20.50;99.90;;;;;;4956158;29;20031;-70
2021/10/07 15:11:48;;;;;;;3.63;2.20;;;21.00;99.90;;;;;;4955424;28;20391;-71
2021/10/07 15:14:13;;;;;;;5.45;2.10;;;21.20;99.90;;;;;;4972042;28;20027;-71
2021/10/07 15:16:39;;;;;;;5.15;1.60;;;20.90;99.90;;;;;;4975104;28;20533;-70
2021/10/07 15:19:05;;;;;;;3.58;1.67;;;20.10;99.90;;;;;;4975519;28;20026;-71
2021/10/07 15:21:36;;;;;;;2.65;1.98;;;19.40;99.90;;;;;;4974973;28;20030;-71
2021/10/07 15:24:03;;;;;;;9.68;2.20;;;18.80;99.90;;;;;;4975307;28;20021;-70
2021/10/07 15:26:29;;;;;;;7.03;4.32;;;18.40;99.90;;;;;;4975159;28;20394;-71
2021/10/07 15:28:54;;;;;;;7.95;6.20;;;18.00;99.90;;;;;;4975052;28;20021;-71
2021/10/07 15:31:20;;;;;;;11.52;7.00;;;18.10;99.90;;;;;;4974129;28;20062;-71
2021/10/07 15:33:46;;;;;;;11.55;6.80;;;18.60;99.90;;;;;;4961585;28;20057;-72
2021/10/07 15:36:11;;;;;;;14.95;8.70;;;19.00;99.90;;;;;;4965338;28;20442;-72
2021/10/07 15:38:37;;;;;;;9.95;7.80;;;19.30;99.90;;;;;;4970441;28;20368;-71
2021/10/07 15:41:03;;;;;;;10.88;7.03;;;19.50;99.90;;;;;;4972979;28;20110;-71
2021/10/07 15:43:28;;;;;;;12.65;7.47;;;19.80;99.90;;;;;;4975205;28;20027;-71
2021/10/07 15:45:54;;;;;;;14.75;7.82;;;20.00;99.90;;;;;;4973525;28;20022;-71
2021/10/07 15:48:20;;;;;;;13.27;9.57;;;19.60;99.90;;;;;;4974910;28;20517;-71
2021/10/07 15:50:47;;;;;;;19.70;8.88;;;19.30;99.90;;;;;;4969826;28;20391;-71
2021/10/07 15:53:15;;;;;;;13.38;9.43;;;18.70;99.90;;;;;;4955738;28;20062;-71
2021/10/07 15:55:40;;;;;;;13.60;9.27;;;18.00;99.90;;;;;;4961919;28;20133;-71
2021/10/07 15:58:06;;;;;;;15.32;9.50;;;17.50;99.90;;;;;;4972926;28;20474;-72
2021/10/07 16:00:32;;;;;;;16.73;9.98;;;17.10;99.90;;;;;;4974701;28;20027;-71
2021/10/07 16:02:58;;;;;;;19.80;11.35;;;16.60;99.90;;;;;;4973642;28;20394;-71
2021/10/07 16:05:24;;;;;;;16.95;10.38;;;16.10;99.90;;;;;;4973292;28;20030;-71
2021/10/07 16:07:50;;;;;;;20.52;11.38;;;15.70;99.90;;;;;;4974545;28;20027;-71
2021/10/07 16:10:16;;;;;;;16.85;10.32;;;15.40;99.90;;;;;;4972904;28;20382;-71
2021/10/07 16:12:41;;;;;;;16.88;10.85;;;15.20;99.90;;;;;;4974428;28;20027;-71
2021/10/07 16:15:10;;;;;;;14.73;9.88;;;15.00;99.90;;;;;;4973266;28;20471;-71
2021/10/07 16:17:36;;;;;;;16.48;10.00;;;14.70;99.90;;;;;;4956182;28;20023;-71
2021/10/07 16:20:06;;;;;;;12.23;9.57;;;14.40;99.90;;;;;;4961826;28;20537;-71
2021/10/07 16:22:32;;;;;;;13.73;9.27;;;14.30;99.90;;;;;;4974820;28;20102;-71
2021/10/07 16:24:58;;;;;;;15.95;9.43;;;14.10;99.90;;;;;;4973612;28;20118;-71
2021/10/07 16:27:24;;;;;;;15.43;9.13;;;13.90;99.90;;;;;;4974201;28;20037;-71
2021/10/07 16:29:50;;;;;;;12.13;9.07;;;13.70;99.90;;;;;;4973157;28;20026;-71
2021/10/07 16:32:16;;;;;;;14.70;10.27;;;13.50;99.90;;;;;;4973424;28;20089;-71
2021/10/07 16:34:41;;;;;;;18.17;10.52;;;13.30;99.90;;;;;;4972430;28;20438;-71
2021/10/07 16:37:07;;;;;;;15.60;9.50;;;13.20;99.90;;;;;;4954899;28;20030;-71
2021/10/07 16:39:32;;;;;;;16.45;9.88;;;13.00;99.90;;;;;;4954970;29;20023;-70
2021/10/07 16:41:58;;;;;;;16.48;8.98;;;12.90;99.90;;;;;;4968905;28;20045;-69
2021/10/07 16:44:23;;;;;;;15.63;10.45;;;12.60;99.90;;;;;;4974202;28;20113;-70
2021/10/07 16:46:49;;;;;;;12.93;9.52;;;12.50;99.90;;;;;;4972252;28;20093;-70
2021/10/07 16:49:15;;;;;;;14.18;9.95;;;12.40;99.90;;;;;;4974045;28;20086;-70
2021/10/07 16:51:40;;;;;;;11.60;8.48;;;12.30;99.90;;;;;;4957896;28;20569;-70
2021/10/07 16:54:06;;;;;;;15.20;10.05;;;12.10;99.90;;;;;;4954302;29;20086;-70
2021/10/07 16:56:32;;;;;;;17.23;10.07;;;12.10;99.90;;;;;;4962389;28;20029;-70
2021/10/07 16:58:57;;;;;;;13.15;9.48;;;12.00;99.90;;;;;;4954738;28;20082;-69
2021/10/07 17:01:23;;;;;;;12.45;10.05;;;12.00;99.90;;;;;;4956302;28;20023;-70
2021/10/07 17:03:48;;;;;;;14.95;10.80;;;12.10;99.90;;;;;;4971509;28;20474;-70
2021/10/07 17:06:15;;;;;;;22.98;13.55;;;12.10;99.90;;;;;;4959052;28;20086;-70
2021/10/07 17:08:42;;;;;;;28.33;15.75;;;12.10;99.90;;;;;;4954725;28;20031;-70
2021/10/07 17:11:09;;;;;;;24.58;16.83;;;12.20;99.90;;;;;;4956921;28;20032;-70
2021/10/07 17:13:34;;;;;;;28.92;16.02;;;12.20;99.90;;;;;;4954919;28;20020;-70
2021/10/07 17:16:00;;;;;;;23.80;16.13;;;12.10;99.90;;;;;;4960071;28;20026;-70
2021/10/07 17:18:26;;;;;;;23.85;14.32;;;12.10;99.90;;;;;;4973868;28;20023;-70
2021/10/07 17:20:51;;;;;;;23.13;13.38;;;12.00;99.90;;;;;;4973796;28;20029;-70
2021/10/07 17:23:17;;;;;;;19.90;13.20;;;11.90;99.90;;;;;;4973911;28;20066;-70
2021/10/07 17:25:43;;;;;;;21.50;13.73;;;11.80;99.90;;;;;;4973117;28;20046;-69
2021/10/07 17:28:09;;;;;;;19.85;13.20;;;11.70;99.90;;;;;;4974059;28;20482;-70
2021/10/07 17:30:34;;;;;;;17.92;13.00;;;11.60;99.90;;;;;;4973799;28;20106;-70
2021/10/07 17:33:01;;;;;;;21.60;11.25;;;11.60;99.90;;;;;;4973569;28;20035;-70
2021/10/07 17:35:26;;;;;;;18.33;12.30;;;11.40;99.90;;;;;;4974409;28;20111;-70
2021/10/07 17:37:52;;;;;;;16.40;11.45;;;11.40;99.90;;;;;;4977292;28;20090;-70
2021/10/07 17:40:21;;;;;;;19.38;12.25;;;11.30;99.90;;;;;;4977191;28;20025;-70
2021/10/07 17:42:48;;;;;;;20.02;13.73;;;11.30;99.90;;;;;;4977086;28;20038;-70
2021/10/07 17:45:14;;;;;;;22.20;14.65;;;11.20;99.90;;;;;;4976601;28;20482;-70
2021/10/07 17:47:40;;;;;;;24.38;15.80;;;11.10;99.90;;;;;;4997085;23;20042;-73
2021/10/07 17:50:08;;;;;;;24.48;15.75;;;11.10;99.90;;;;;;4992569;28;20030;-73
2021/10/07 17:52:33;;;;;;;19.33;13.25;;;11.00;99.90;;;;;;4976748;28;20029;-73
2021/10/07 17:54:59;;;;;;;18.65;12.60;;;10.90;99.90;;;;;;4980913;28;20026;-73
2021/10/07 17:57:25;;;;;;;18.95;12.43;;;10.70;99.90;;;;;;4996543;28;20034;-72
2021/10/07 17:59:51;;;;;;;18.90;12.45;;;10.60;99.90;;;;;;4996243;28;20026;-72
2021/10/07 18:02:17;;;;;;;16.52;11.40;;;10.40;99.90;;;;;;4995997;28;20037;-73
2021/10/07 18:04:42;;;;;;;15.85;10.32;;;10.30;99.90;;;;;;4996232;28;20038;-72
2021/10/07 18:07:08;;;;;;;20.67;12.75;;;10.10;99.90;;;;;;4995195;28;20470;-72
2021/10/07 18:09:36;;;;;;;19.38;12.70;;;10.00;99.90;;;;;;4996043;28;20019;-72
2021/10/07 18:12:02;;;;;;;16.95;10.85;;;9.90;99.90;;;;;;4996006;28;20030;-72
2021/10/07 18:14:28;;;;;;;15.43;11.07;;;9.70;99.90;;;;;;4995857;28;20050;-72
2021/10/07 18:16:54;;;;;;;21.15;12.60;;;9.60;99.90;;;;;;4996054;28;20074;-72